sensor_id;sensor_type;location;lat;lon;timestamp;P1;durP1;ratioP1;P2;durP2;ratioP2
18592;SDS011;9426;54.118;17.948;2024-01-11T00:00:06;25.13;;;7.93;;
18592;SDS011;9426;54.118;17.948;2024-01-11T00:05:30;33.57;;;9.83;;
18592;SDS011;9426;54.118;17.948;2024-01-11T00:10:55;34.57;;;10.47;;
18592;SDS011;9426;54.118;17.948;2024-01-11T00:16:20;26.63;;;9.30;;
18592;SDS011;9426;54.118;17.948;2024-01-11T00:21:44;36.77;;;11.30;;
18592;SDS011;9426;54.118;17.948;2024-01-11T00:27:09;37.00;;;11.17;;
18592;SDS011;9426;54.118;17.948;2024-01-11T00:32:33;31.60;;;11.97;;
18592;SDS011;9426;54.118;17.948;2024-01-11T00:37:57;45.40;;;14.83;;
18592;SDS011;9426;54.118;17.948;2024-01-11T00:43:23;52.33;;;14.93;;
18592;SDS011;9426;54.118;17.948;2024-01-11T00:48:46;43.47;;;13.47;;
18592;SDS011;9426;54.118;17.948;2024-01-11T00:54:12;25.77;;;10.50;;
18592;SDS011;9426;54.118;17.948;2024-01-11T00:59:39;19.93;;;8.80;;
18592;SDS011;9426;54.118;17.948;2024-01-11T01:05:03;18.93;;;8.77;;
18592;SDS011;9426;54.118;17.948;2024-01-11T01:10:28;18.03;;;8.53;;
18592;SDS011;9426;54.118;17.948;2024-01-11T01:15:53;16.53;;;7.97;;
18592;SDS011;9426;54.118;17.948;2024-01-11T01:21:18;15.30;;;8.73;;
18592;SDS011;9426;54.118;17.948;2024-01-11T01:26:41;18.73;;;8.77;;
18592;SDS011;9426;54.118;17.948;2024-01-11T01:32:06;17.93;;;8.50;;
18592;SDS011;9426;54.118;17.948;2024-01-11T01:37:30;17.17;;;8.53;;
18592;SDS011;9426;54.118;17.948;2024-01-11T01:42:57;22.70;;;10.57;;
18592;SDS011;9426;54.118;17.948;2024-01-11T01:48:23;18.90;;;8.87;;
18592;SDS011;9426;54.118;17.948;2024-01-11T01:53:47;19.07;;;9.13;;
18592;SDS011;9426;54.118;17.948;2024-01-11T01:59:14;16.13;;;9.23;;
18592;SDS011;9426;54.118;17.948;2024-01-11T02:04:40;22.83;;;8.30;;
18592;SDS011;9426;54.118;17.948;2024-01-11T02:10:04;16.03;;;7.93;;
18592;SDS011;9426;54.118;17.948;2024-01-11T02:15:30;17.23;;;9.57;;
18592;SDS011;9426;54.118;17.948;2024-01-11T02:20:55;14.50;;;7.83;;
18592;SDS011;9426;54.118;17.948;2024-01-11T02:26:21;12.97;;;7.37;;
18592;SDS011;9426;54.118;17.948;2024-01-11T02:31:45;17.33;;;8.43;;
18592;SDS011;9426;54.118;17.948;2024-01-11T02:37:09;12.20;;;6.97;;
18592;SDS011;9426;54.118;17.948;2024-01-11T02:42:36;13.50;;;7.40;;
18592;SDS011;9426;54.118;17.948;2024-01-11T02:48:01;11.80;;;7.27;;
18592;SDS011;9426;54.118;17.948;2024-01-11T02:53:25;16.10;;;7.50;;
18592;SDS011;9426;54.118;17.948;2024-01-11T02:58:50;13.03;;;6.97;;
18592;SDS011;9426;54.118;17.948;2024-01-11T03:04:14;14.30;;;8.03;;
18592;SDS011;9426;54.118;17.948;2024-01-11T03:09:38;12.97;;;6.53;;
18592;SDS011;9426;54.118;17.948;2024-01-11T03:15:03;14.43;;;6.73;;
18592;SDS011;9426;54.118;17.948;2024-01-11T03:20:27;17.37;;;7.00;;
18592;SDS011;9426;54.118;17.948;2024-01-11T03:25:51;15.47;;;7.50;;
18592;SDS011;9426;54.118;17.948;2024-01-11T03:31:16;15.70;;;7.67;;
18592;SDS011;9426;54.118;17.948;2024-01-11T03:36:39;19.83;;;7.40;;
18592;SDS011;9426;54.118;17.948;2024-01-11T03:42:03;13.50;;;7.40;;
18592;SDS011;9426;54.118;17.948;2024-01-11T03:47:29;14.40;;;8.03;;
18592;SDS011;9426;54.118;17.948;2024-01-11T03:52:53;20.67;;;7.70;;
18592;SDS011;9426;54.118;17.948;2024-01-11T03:58:17;18.43;;;7.93;;
18592;SDS011;9426;54.118;17.948;2024-01-11T04:03:42;16.10;;;7.77;;
18592;SDS011;9426;54.118;17.948;2024-01-11T04:09:06;14.40;;;7.17;;
18592;SDS011;9426;54.118;17.948;2024-01-11T04:14:29;18.07;;;7.50;;
18592;SDS011;9426;54.118;17.948;2024-01-11T04:19:55;14.03;;;7.13;;
18592;SDS011;9426;54.118;17.948;2024-01-11T04:25:18;17.33;;;7.63;;
18592;SDS011;9426;54.118;17.948;2024-01-11T04:30:42;17.07;;;7.67;;
18592;SDS011;9426;54.118;17.948;2024-01-11T04:36:08;15.03;;;6.57;;
18592;SDS011;9426;54.118;17.948;2024-01-11T04:41:31;16.97;;;7.50;;
18592;SDS011;9426;54.118;17.948;2024-01-11T04:46:55;16.53;;;7.53;;
18592;SDS011;9426;54.118;17.948;2024-01-11T04:52:20;15.40;;;7.30;;
18592;SDS011;9426;54.118;17.948;2024-01-11T04:57:46;16.50;;;7.23;;
18592;SDS011;9426;54.118;17.948;2024-01-11T05:03:09;18.03;;;7.30;;
18592;SDS011;9426;54.118;17.948;2024-01-11T05:08:35;18.70;;;7.27;;
18592;SDS011;9426;54.118;17.948;2024-01-11T05:13:59;14.97;;;7.40;;
18592;SDS011;9426;54.118;17.948;2024-01-11T05:19:22;21.10;;;7.60;;
18592;SDS011;9426;54.118;17.948;2024-01-11T05:24:48;15.47;;;6.90;;
18592;SDS011;9426;54.118;17.948;2024-01-11T05:30:11;15.20;;;6.57;;
18592;SDS011;9426;54.118;17.948;2024-01-11T05:35:36;16.10;;;6.93;;
18592;SDS011;9426;54.118;17.948;2024-01-11T05:41:01;19.23;;;7.27;;
18592;SDS011;9426;54.118;17.948;2024-01-11T05:46:25;17.73;;;7.00;;
18592;SDS011;9426;54.118;17.948;2024-01-11T05:51:50;14.33;;;7.33;;
18592;SDS011;9426;54.118;17.948;2024-01-11T05:57:14;13.93;;;7.13;;
18592;SDS011;9426;54.118;17.948;2024-01-11T06:02:38;20.03;;;8.27;;
18592;SDS011;9426;54.118;17.948;2024-01-11T06:08:03;16.40;;;8.53;;
18592;SDS011;9426;54.118;17.948;2024-01-11T06:13:29;21.63;;;8.70;;
18592;SDS011;9426;54.118;17.948;2024-01-11T06:18:53;17.87;;;8.17;;
18592;SDS011;9426;54.118;17.948;2024-01-11T06:24:16;20.10;;;9.13;;
18592;SDS011;9426;54.118;17.948;2024-01-11T06:29:42;21.40;;;9.80;;
18592;SDS011;9426;54.118;17.948;2024-01-11T06:35:06;20.43;;;8.93;;
18592;SDS011;9426;54.118;17.948;2024-01-11T06:40:31;24.53;;;9.70;;
18592;SDS011;9426;54.118;17.948;2024-01-11T06:45:55;17.63;;;9.03;;
18592;SDS011;9426;54.118;17.948;2024-01-11T06:51:20;23.93;;;9.37;;
18592;SDS011;9426;54.118;17.948;2024-01-11T06:56:44;16.47;;;8.30;;
18592;SDS011;9426;54.118;17.948;2024-01-11T07:02:09;17.47;;;8.83;;
18592;SDS011;9426;54.118;17.948;2024-01-11T07:07:34;23.07;;;9.07;;
18592;SDS011;9426;54.118;17.948;2024-01-11T07:12:57;27.60;;;9.43;;
18592;SDS011;9426;54.118;17.948;2024-01-11T07:18:23;20.30;;;9.20;;
18592;SDS011;9426;54.118;17.948;2024-01-11T07:23:46;22.73;;;9.33;;
18592;SDS011;9426;54.118;17.948;2024-01-11T07:29:10;21.50;;;9.33;;
18592;SDS011;9426;54.118;17.948;2024-01-11T07:34:35;19.87;;;8.07;;
18592;SDS011;9426;54.118;17.948;2024-01-11T07:40:00;23.23;;;9.40;;
18592;SDS011;9426;54.118;17.948;2024-01-11T07:45:25;28.77;;;11.60;;
18592;SDS011;9426;54.118;17.948;2024-01-11T07:50:50;25.57;;;11.30;;
18592;SDS011;9426;54.118;17.948;2024-01-11T07:56:14;25.77;;;9.87;;
18592;SDS011;9426;54.118;17.948;2024-01-11T08:01:39;24.70;;;10.87;;
18592;SDS011;9426;54.118;17.948;2024-01-11T08:07:05;23.20;;;8.87;;
18592;SDS011;9426;54.118;17.948;2024-01-11T08:12:28;21.47;;;10.00;;
18592;SDS011;9426;54.118;17.948;2024-01-11T08:17:53;21.57;;;10.47;;
18592;SDS011;9426;54.118;17.948;2024-01-11T08:23:18;22.83;;;10.50;;
18592;SDS011;9426;54.118;17.948;2024-01-11T08:28:42;21.57;;;10.37;;
18592;SDS011;9426;54.118;17.948;2024-01-11T08:34:06;25.93;;;12.27;;
18592;SDS011;9426;54.118;17.948;2024-01-11T08:39:31;21.90;;;10.10;;
18592;SDS011;9426;54.118;17.948;2024-01-11T08:44:55;28.30;;;11.13;;
18592;SDS011;9426;54.118;17.948;2024-01-11T08:50:20;17.90;;;8.63;;
18592;SDS011;9426;54.118;17.948;2024-01-11T08:55:46;17.00;;;8.07;;
18592;SDS011;9426;54.118;17.948;2024-01-11T09:01:10;24.47;;;9.47;;
18592;SDS011;9426;54.118;17.948;2024-01-11T09:06:34;25.63;;;10.50;;
18592;SDS011;9426;54.118;17.948;2024-01-11T09:11:59;19.80;;;8.57;;
18592;SDS011;9426;54.118;17.948;2024-01-11T09:17:24;20.50;;;8.40;;
18592;SDS011;9426;54.118;17.948;2024-01-11T09:22:48;14.23;;;7.60;;
18592;SDS011;9426;54.118;17.948;2024-01-11T09:28:13;16.17;;;7.80;;
18592;SDS011;9426;54.118;17.948;2024-01-11T09:33:37;14.87;;;6.80;;
18592;SDS011;9426;54.118;17.948;2024-01-11T09:39:00;20.97;;;7.50;;
18592;SDS011;9426;54.118;17.948;2024-01-11T09:44:26;13.80;;;6.60;;
18592;SDS011;9426;54.118;17.948;2024-01-11T09:49:50;17.00;;;6.77;;
18592;SDS011;9426;54.118;17.948;2024-01-11T09:55:16;17.23;;;6.97;;
18592;SDS011;9426;54.118;17.948;2024-01-11T10:00:42;18.60;;;6.70;;
18592;SDS011;9426;54.118;17.948;2024-01-11T10:06:06;15.07;;;6.03;;
18592;SDS011;9426;54.118;17.948;2024-01-11T10:11:31;21.10;;;7.03;;
18592;SDS011;9426;54.118;17.948;2024-01-11T10:16:57;18.67;;;7.20;;
18592;SDS011;9426;54.118;17.948;2024-01-11T10:22:21;17.60;;;6.90;;
18592;SDS011;9426;54.118;17.948;2024-01-11T10:27:45;11.87;;;5.87;;
18592;SDS011;9426;54.118;17.948;2024-01-11T10:33:10;16.50;;;7.53;;
18592;SDS011;9426;54.118;17.948;2024-01-11T10:38:35;13.00;;;5.83;;
18592;SDS011;9426;54.118;17.948;2024-01-11T10:44:01;17.20;;;5.83;;
18592;SDS011;9426;54.118;17.948;2024-01-11T10:49:28;14.83;;;6.03;;
18592;SDS011;9426;54.118;17.948;2024-01-11T10:54:55;15.43;;;6.83;;
18592;SDS011;9426;54.118;17.948;2024-01-11T11:00:20;11.50;;;5.90;;
18592;SDS011;9426;54.118;17.948;2024-01-11T11:05:47;16.27;;;5.93;;
18592;SDS011;9426;54.118;17.948;2024-01-11T11:11:12;15.00;;;5.67;;
18592;SDS011;9426;54.118;17.948;2024-01-11T11:16:36;12.47;;;6.00;;
18592;SDS011;9426;54.118;17.948;2024-01-11T11:22:02;18.43;;;4.63;;
18592;SDS011;9426;54.118;17.948;2024-01-11T11:27:27;16.40;;;5.67;;
18592;SDS011;9426;54.118;17.948;2024-01-11T11:32:51;10.33;;;4.90;;
18592;SDS011;9426;54.118;17.948;2024-01-11T11:38:20;11.47;;;5.23;;
18592;SDS011;9426;54.118;17.948;2024-01-11T11:43:46;11.13;;;4.50;;
18592;SDS011;9426;54.118;17.948;2024-01-11T11:49:11;10.73;;;5.03;;
18592;SDS011;9426;54.118;17.948;2024-01-11T11:54:36;13.53;;;4.97;;
18592;SDS011;9426;54.118;17.948;2024-01-11T12:00:02;9.13;;;3.80;;
18592;SDS011;9426;54.118;17.948;2024-01-11T12:05:33;6.03;;;3.50;;
18592;SDS011;9426;54.118;17.948;2024-01-11T12:11:02;9.23;;;4.20;;
18592;SDS011;9426;54.118;17.948;2024-01-11T12:16:27;10.50;;;3.80;;
18592;SDS011;9426;54.118;17.948;2024-01-11T12:21:50;12.23;;;4.00;;
18592;SDS011;9426;54.118;17.948;2024-01-11T12:27:15;12.03;;;4.47;;
18592;SDS011;9426;54.118;17.948;2024-01-11T12:32:39;10.57;;;3.50;;
18592;SDS011;9426;54.118;17.948;2024-01-11T12:38:03;13.07;;;4.07;;
18592;SDS011;9426;54.118;17.948;2024-01-11T12:43:29;21.53;;;4.33;;
18592;SDS011;9426;54.118;17.948;2024-01-11T12:48:53;10.27;;;4.13;;
18592;SDS011;9426;54.118;17.948;2024-01-11T12:54:17;8.33;;;3.73;;
18592;SDS011;9426;54.118;17.948;2024-01-11T12:59:42;12.00;;;4.10;;
18592;SDS011;9426;54.118;17.948;2024-01-11T13:05:06;12.27;;;5.07;;
18592;SDS011;9426;54.118;17.948;2024-01-11T13:10:30;7.63;;;3.63;;
18592;SDS011;9426;54.118;17.948;2024-01-11T13:15:56;9.53;;;4.17;;
18592;SDS011;9426;54.118;17.948;2024-01-11T13:21:19;10.93;;;4.33;;
18592;SDS011;9426;54.118;17.948;2024-01-11T13:26:44;10.60;;;4.33;;
18592;SDS011;9426;54.118;17.948;2024-01-11T13:32:09;14.40;;;4.70;;
18592;SDS011;9426;54.118;17.948;2024-01-11T13:37:33;10.27;;;3.97;;
18592;SDS011;9426;54.118;17.948;2024-01-11T13:42:57;12.80;;;4.70;;
18592;SDS011;9426;54.118;17.948;2024-01-11T13:48:22;11.57;;;5.07;;
18592;SDS011;9426;54.118;17.948;2024-01-11T13:53:46;9.47;;;4.63;;
18592;SDS011;9426;54.118;17.948;2024-01-11T13:59:10;10.80;;;4.90;;
18592;SDS011;9426;54.118;17.948;2024-01-11T14:04:36;14.10;;;5.73;;
18592;SDS011;9426;54.118;17.948;2024-01-11T14:10:00;7.43;;;4.23;;
18592;SDS011;9426;54.118;17.948;2024-01-11T14:15:24;15.37;;;5.23;;
18592;SDS011;9426;54.118;17.948;2024-01-11T14:20:49;8.67;;;4.57;;
18592;SDS011;9426;54.118;17.948;2024-01-11T14:26:13;10.30;;;4.10;;
18592;SDS011;9426;54.118;17.948;2024-01-11T14:31:37;13.80;;;5.60;;
18592;SDS011;9426;54.118;17.948;2024-01-11T14:37:04;10.83;;;4.40;;
18592;SDS011;9426;54.118;17.948;2024-01-11T14:42:28;10.77;;;4.73;;
18592;SDS011;9426;54.118;17.948;2024-01-11T14:47:51;11.77;;;5.23;;
18592;SDS011;9426;54.118;17.948;2024-01-11T14:53:17;12.13;;;4.80;;
18592;SDS011;9426;54.118;17.948;2024-01-11T14:58:42;12.17;;;4.87;;
18592;SDS011;9426;54.118;17.948;2024-01-11T15:04:05;10.57;;;3.53;;
18592;SDS011;9426;54.118;17.948;2024-01-11T15:09:31;13.73;;;4.53;;
18592;SDS011;9426;54.118;17.948;2024-01-11T15:14:54;14.37;;;5.13;;
18592;SDS011;9426;54.118;17.948;2024-01-11T15:20:18;19.67;;;5.70;;
18592;SDS011;9426;54.118;17.948;2024-01-11T15:25:46;12.80;;;4.97;;
18592;SDS011;9426;54.118;17.948;2024-01-11T15:31:10;18.33;;;5.23;;
18592;SDS011;9426;54.118;17.948;2024-01-11T15:36:34;11.10;;;4.70;;
18592;SDS011;9426;54.118;17.948;2024-01-11T15:42:00;17.60;;;5.40;;
18592;SDS011;9426;54.118;17.948;2024-01-11T15:47:24;13.57;;;4.90;;
18592;SDS011;9426;54.118;17.948;2024-01-11T15:52:48;10.20;;;3.47;;
18592;SDS011;9426;54.118;17.948;2024-01-11T15:58:13;13.43;;;4.57;;
18592;SDS011;9426;54.118;17.948;2024-01-11T16:03:37;7.97;;;3.13;;
18592;SDS011;9426;54.118;17.948;2024-01-11T16:09:02;10.50;;;3.00;;
18592;SDS011;9426;54.118;17.948;2024-01-11T16:14:29;12.70;;;3.90;;
18592;SDS011;9426;54.118;17.948;2024-01-11T16:19:53;9.67;;;2.50;;
18592;SDS011;9426;54.118;17.948;2024-01-11T16:25:17;5.87;;;2.17;;
18592;SDS011;9426;54.118;17.948;2024-01-11T16:30:43;7.33;;;2.53;;
18592;SDS011;9426;54.118;17.948;2024-01-11T16:36:07;5.20;;;1.47;;
18592;SDS011;9426;54.118;17.948;2024-01-11T16:41:31;6.20;;;1.80;;
18592;SDS011;9426;54.118;17.948;2024-01-11T16:46:57;7.97;;;2.10;;
18592;SDS011;9426;54.118;17.948;2024-01-11T16:52:21;9.73;;;2.17;;
18592;SDS011;9426;54.118;17.948;2024-01-11T16:57:45;7.53;;;2.20;;
18592;SDS011;9426;54.118;17.948;2024-01-11T17:03:12;7.27;;;2.27;;
18592;SDS011;9426;54.118;17.948;2024-01-11T17:08:36;5.80;;;2.10;;
18592;SDS011;9426;54.118;17.948;2024-01-11T17:13:59;7.50;;;2.50;;
18592;SDS011;9426;54.118;17.948;2024-01-11T17:19:25;4.50;;;1.97;;
18592;SDS011;9426;54.118;17.948;2024-01-11T17:24:48;6.67;;;2.10;;
18592;SDS011;9426;54.118;17.948;2024-01-11T17:30:12;7.10;;;2.33;;
18592;SDS011;9426;54.118;17.948;2024-01-11T17:35:38;7.43;;;2.30;;
18592;SDS011;9426;54.118;17.948;2024-01-11T17:41:02;4.70;;;2.23;;
18592;SDS011;9426;54.118;17.948;2024-01-11T17:46:26;8.30;;;2.40;;
18592;SDS011;9426;54.118;17.948;2024-01-11T17:51:51;13.47;;;3.33;;
18592;SDS011;9426;54.118;17.948;2024-01-11T17:57:17;12.17;;;2.93;;
18592;SDS011;9426;54.118;17.948;2024-01-11T18:02:40;9.87;;;3.37;;
18592;SDS011;9426;54.118;17.948;2024-01-11T18:08:06;18.37;;;4.37;;
18592;SDS011;9426;54.118;17.948;2024-01-11T18:13:30;13.07;;;3.63;;
18592;SDS011;9426;54.118;17.948;2024-01-11T18:18:54;14.77;;;4.07;;
18592;SDS011;9426;54.118;17.948;2024-01-11T18:24:19;10.77;;;3.40;;
18592;SDS011;9426;54.118;17.948;2024-01-11T18:29:43;12.10;;;3.50;;
18592;SDS011;9426;54.118;17.948;2024-01-11T18:35:07;12.27;;;3.47;;
18592;SDS011;9426;54.118;17.948;2024-01-11T18:40:33;9.77;;;3.40;;
18592;SDS011;9426;54.118;17.948;2024-01-11T18:45:57;18.00;;;3.87;;
18592;SDS011;9426;54.118;17.948;2024-01-11T18:51:22;10.50;;;2.97;;
18592;SDS011;9426;54.118;17.948;2024-01-11T18:56:48;12.83;;;3.97;;
18592;SDS011;9426;54.118;17.948;2024-01-11T19:02:13;11.70;;;3.73;;
18592;SDS011;9426;54.118;17.948;2024-01-11T19:07:36;18.90;;;5.80;;
18592;SDS011;9426;54.118;17.948;2024-01-11T19:13:03;16.70;;;6.20;;
18592;SDS011;9426;54.118;17.948;2024-01-11T19:18:27;17.53;;;5.47;;
18592;SDS011;9426;54.118;17.948;2024-01-11T19:23:50;15.63;;;6.33;;
18592;SDS011;9426;54.118;17.948;2024-01-11T19:29:16;15.00;;;5.40;;
18592;SDS011;9426;54.118;17.948;2024-01-11T19:34:40;14.57;;;4.63;;
18592;SDS011;9426;54.118;17.948;2024-01-11T19:40:05;18.17;;;5.50;;
18592;SDS011;9426;54.118;17.948;2024-01-11T19:45:31;20.37;;;5.63;;
18592;SDS011;9426;54.118;17.948;2024-01-11T19:50:55;26.20;;;8.10;;
18592;SDS011;9426;54.118;17.948;2024-01-11T19:56:20;21.27;;;5.33;;
18592;SDS011;9426;54.118;17.948;2024-01-11T20:01:46;24.00;;;6.67;;
18592;SDS011;9426;54.118;17.948;2024-01-11T20:07:11;20.43;;;5.30;;
18592;SDS011;9426;54.118;17.948;2024-01-11T20:12:35;18.17;;;4.90;;
18592;SDS011;9426;54.118;17.948;2024-01-11T20:18:02;16.07;;;4.60;;
18592;SDS011;9426;54.118;17.948;2024-01-11T20:23:31;26.23;;;8.73;;
18592;SDS011;9426;54.118;17.948;2024-01-11T20:29:02;22.00;;;6.67;;
18592;SDS011;9426;54.118;17.948;2024-01-11T20:34:28;21.47;;;5.77;;
18592;SDS011;9426;54.118;17.948;2024-01-11T20:39:52;13.90;;;4.47;;
18592;SDS011;9426;54.118;17.948;2024-01-11T20:45:16;21.30;;;4.40;;
18592;SDS011;9426;54.118;17.948;2024-01-11T20:50:43;13.53;;;4.27;;
18592;SDS011;9426;54.118;17.948;2024-01-11T20:56:07;12.13;;;3.90;;
18592;SDS011;9426;54.118;17.948;2024-01-11T21:01:31;11.07;;;3.70;;
18592;SDS011;9426;54.118;17.948;2024-01-11T21:06:59;14.10;;;4.33;;
18592;SDS011;9426;54.118;17.948;2024-01-11T21:12:23;18.80;;;4.80;;
18592;SDS011;9426;54.118;17.948;2024-01-11T21:17:47;16.17;;;3.57;;
18592;SDS011;9426;54.118;17.948;2024-01-11T21:23:12;8.90;;;3.30;;
18592;SDS011;9426;54.118;17.948;2024-01-11T21:28:36;12.60;;;3.50;;
18592;SDS011;9426;54.118;17.948;2024-01-11T21:34:02;8.93;;;3.27;;
18592;SDS011;9426;54.118;17.948;2024-01-11T21:46:06;17.50;;;5.23;;
18592;SDS011;9426;54.118;17.948;2024-01-11T21:51:30;14.60;;;3.50;;
18592;SDS011;9426;54.118;17.948;2024-01-11T21:56:54;10.60;;;3.20;;
18592;SDS011;9426;54.118;17.948;2024-01-11T22:02:21;15.23;;;3.50;;
18592;SDS011;9426;54.118;17.948;2024-01-11T22:07:45;18.07;;;4.10;;
18592;SDS011;9426;54.118;17.948;2024-01-11T22:13:10;10.23;;;4.20;;
18592;SDS011;9426;54.118;17.948;2024-01-11T22:18:37;12.93;;;3.83;;
18592;SDS011;9426;54.118;17.948;2024-01-11T22:24:03;13.73;;;4.23;;
18592;SDS011;9426;54.118;17.948;2024-01-11T22:29:27;9.57;;;3.83;;
18592;SDS011;9426;54.118;17.948;2024-01-11T22:34:52;10.17;;;3.13;;
18592;SDS011;9426;54.118;17.948;2024-01-11T22:40:16;7.80;;;3.43;;
18592;SDS011;9426;54.118;17.948;2024-01-11T22:45:40;14.43;;;4.30;;
18592;SDS011;9426;54.118;17.948;2024-01-11T22:51:06;15.07;;;4.47;;
18592;SDS011;9426;54.118;17.948;2024-01-11T22:56:30;12.77;;;4.37;;
18592;SDS011;9426;54.118;17.948;2024-01-11T23:01:57;12.23;;;4.00;;
18592;SDS011;9426;54.118;17.948;2024-01-11T23:07:23;13.77;;;3.83;;
18592;SDS011;9426;54.118;17.948;2024-01-11T23:12:47;18.03;;;5.17;;
18592;SDS011;9426;54.118;17.948;2024-01-11T23:18:11;7.40;;;3.03;;
18592;SDS011;9426;54.118;17.948;2024-01-11T23:23:36;11.10;;;3.30;;
18592;SDS011;9426;54.118;17.948;2024-01-11T23:29:00;24.33;;;5.10;;
18592;SDS011;9426;54.118;17.948;2024-01-11T23:34:24;21.17;;;5.47;;
18592;SDS011;9426;54.118;17.948;2024-01-11T23:39:49;17.07;;;5.03;;
18592;SDS011;9426;54.118;17.948;2024-01-11T23:45:13;27.07;;;7.20;;
18592;SDS011;9426;54.118;17.948;2024-01-11T23:50:37;15.67;;;4.10;;
18592;SDS011;9426;54.118;17.948;2024-01-11T23:56:02;8.83;;;2.87;;
